Time;durP1;ratioP1;P1;durP2;ratioP2;P2;SDS_P1;SDS_P2;PMS_P1;PMS_P2;Temp;Humidity;BMP_temperature;BMP_pressure;BME280_temperature;BME280_humidity;BME280_pressure;Samples;Min_cycle;Max_cycle;Signal;HPM_P1;HPM_P2
2024/01/27 00:01:03;;;;;;;15.70;1.73;;;;;;;6.11;92.47;102063.84;5199956;28;20037;-72
2024/01/27 00:03:33;;;;;;;13.48;1.88;;;;;;;6.13;92.65;102065.59;5189446;28;20056;-73
2024/01/27 00:06:04;;;;;;;13.40;2.28;;;;;;;6.14;91.10;102061.25;5197880;28;20028;-73
2024/01/27 00:08:34;;;;;;;13.65;2.25;;;;;;;6.14;91.26;102064.72;5202846;28;20083;-73
2024/01/27 00:11:04;;;;;;;14.55;1.88;;;;;;;6.23;91.13;102067.38;5194110;28;20029;-73
2024/01/27 00:13:35;;;;;;;23.75;2.42;;;;;;;6.10;90.35;102069.88;5201191;28;20109;-73
2024/01/27 00:16:05;;;;;;;17.25;2.05;;;;;;;6.22;90.41;102069.97;5193643;28;20125;-71
2024/01/27 00:18:37;;;;;;;21.55;2.05;;;;;;;6.13;91.04;102069.91;5195980;28;20025;-73
2024/01/27 00:21:07;;;;;;;14.50;2.08;;;;;;;6.14;90.97;102079.41;5199079;28;20445;-73
2024/01/27 00:23:38;;;;;;;15.52;1.63;;;;;;;6.20;90.68;102071.66;5195759;28;20029;-72
2024/01/27 00:26:08;;;;;;;16.13;2.30;;;;;;;6.18;91.14;102068.19;5202039;28;20017;-72
2024/01/27 00:28:38;;;;;;;12.00;2.15;;;;;;;6.20;90.69;102075.13;5198739;28;20026;-73
2024/01/27 00:31:09;;;;;;;13.75;1.60;;;;;;;6.22;91.18;102075.16;5205666;28;20087;-73
2024/01/27 00:33:39;;;;;;;14.65;1.75;;;;;;;6.22;90.99;102081.22;5188799;28;20251;-73
2024/01/27 00:36:09;;;;;;;22.08;2.33;;;;;;;6.14;90.80;102082.00;5187390;28;20495;-73
2024/01/27 00:38:40;;;;;;;12.68;1.50;;;;;;;6.15;90.87;102070.78;5196834;28;20033;-73
2024/01/27 00:41:16;;;;;;;11.88;1.75;;;;;;;6.22;90.38;102072.56;5197783;28;20398;-73
2024/01/27 00:43:46;;;;;;;17.88;2.08;;;;;;;6.20;90.44;102082.03;5199678;28;20402;-72
2024/01/27 00:46:16;;;;;;;9.90;1.50;;;;;;;6.22;90.29;102088.16;5182129;28;20034;-73
2024/01/27 00:48:47;;;;;;;18.88;2.08;;;;;;;6.14;89.87;102095.88;5196615;28;20037;-73
2024/01/27 00:51:17;;;;;;;15.00;2.25;;;;;;;6.27;90.40;102087.28;5198126;28;20036;-73
2024/01/27 00:53:47;;;;;;;13.55;2.00;;;;;;;6.25;90.28;102095.94;5196898;28;20481;-73
2024/01/27 00:56:17;;;;;;;15.07;1.92;;;;;;;6.15;91.05;102095.03;5199424;28;20030;-73
2024/01/27 00:58:48;;;;;;;17.35;2.25;;;;;;;6.19;91.33;102095.88;5191612;28;20394;-73
2024/01/27 01:01:18;;;;;;;19.35;2.00;;;;;;;6.19;91.27;102088.97;5185686;28;20242;-73
2024/01/27 01:03:48;;;;;;;15.68;1.98;;;;;;;6.22;90.86;102090.75;5194161;28;20029;-73
2024/01/27 01:06:19;;;;;;;16.63;1.70;;;;;;;6.16;91.65;102101.94;5191371;28;20038;-73
2024/01/27 01:08:49;;;;;;;14.38;1.75;;;;;;;6.16;91.71;102095.88;5194875;28;20409;-72
2024/01/27 01:11:20;;;;;;;17.73;2.03;;;;;;;6.07;92.34;102083.69;5188653;28;20049;-73
2024/01/27 01:13:50;;;;;;;17.08;2.10;;;;;;;6.03;91.81;102089.72;5195162;28;20045;-73
2024/01/27 01:16:20;;;;;;;12.82;2.05;;;;;;;6.02;92.58;102088.00;5183316;28;20091;-73
2024/01/27 01:18:50;;;;;;;19.27;2.28;;;;;;;5.97;92.78;102088.81;5190742;28;20483;-73
2024/01/27 01:21:21;;;;;;;22.50;2.28;;;;;;;5.92;93.10;102083.59;5196869;28;20038;-73
2024/01/27 01:23:52;;;;;;;21.48;2.78;;;;;;;5.98;92.92;102087.97;5193056;28;20398;-73
2024/01/27 01:26:22;;;;;;;17.88;1.92;;;;;;;5.91;93.27;102089.63;5201394;28;20056;-73
2024/01/27 01:28:52;;;;;;;20.13;1.85;;;;;;;5.72;94.30;102092.06;5193196;28;20026;-73
2024/01/27 01:31:23;;;;;;;14.98;1.77;;;;;;;5.86;94.82;102085.25;5186744;28;20168;-73
2024/01/27 01:33:53;;;;;;;27.50;2.28;;;;;;;5.83;94.53;102093.91;5191041;28;20491;-72
2024/01/27 01:36:23;;;;;;;12.77;1.63;;;;;;;5.85;93.86;102088.72;5198409;28;20532;-73
2024/01/27 01:38:54;;;;;;;15.93;1.60;;;;;;;5.71;94.84;102098.09;5202567;28;20543;-73
2024/01/27 01:41:24;;;;;;;16.52;1.73;;;;;;;5.70;94.68;102089.44;5201341;28;20076;-73
2024/01/27 01:43:55;;;;;;;13.20;2.08;;;;;;;5.76;94.46;102104.19;5198262;28;20038;-72
2024/01/27 01:46:25;;;;;;;10.98;2.28;;;;;;;5.75;94.84;102097.28;5190616;28;20044;-73
2024/01/27 01:48:55;;;;;;;15.77;1.50;;;;;;;5.70;94.46;102101.53;5198150;28;20460;-73
2024/01/27 01:51:27;;;;;;;17.15;2.00;;;;;;;5.69;95.38;102120.53;5202667;28;20060;-76
2024/01/27 01:53:59;;;;;;;12.70;2.30;;;;;;;5.74;94.64;102121.47;5202446;28;20029;-73
2024/01/27 01:56:29;;;;;;;13.25;1.77;;;;;;;5.77;94.73;102126.69;5195091;28;20526;-72
2024/01/27 01:58:59;;;;;;;15.07;1.67;;;;;;;5.69;95.59;102128.31;5197927;28;20060;-73
2024/01/27 02:01:29;;;;;;;14.07;1.90;;;;;;;5.71;95.98;102126.63;5201963;28;20486;-72
2024/01/27 02:04:00;;;;;;;14.07;1.90;;;;;;;5.73;96.20;102135.31;5186882;28;20034;-73
2024/01/27 02:06:30;;;;;;;10.88;1.85;;;;;;;5.59;96.24;102132.56;5203875;28;20338;-72
2024/01/27 02:09:00;;;;;;;21.10;1.90;;;;;;;5.70;97.16;102136.13;5202933;28;20206;-73
2024/01/27 02:11:31;;;;;;;21.90;2.03;;;;;;;5.73;96.94;102141.34;5204868;28;20592;-73
2024/01/27 02:14:01;;;;;;;14.02;1.85;;;;;;;5.75;97.46;102143.97;5201655;28;20449;-73
2024/01/27 02:16:32;;;;;;;12.05;1.80;;;;;;;5.72;97.30;102149.97;5198753;28;20124;-73
2024/01/27 02:19:02;;;;;;;16.33;1.83;;;;;;;5.84;97.67;102159.63;5200928;28;20024;-73
2024/01/27 02:21:32;;;;;;;14.60;2.08;;;;;;;5.75;97.52;102162.97;5198359;28;20567;-73
2024/01/27 02:24:07;;;;;;;14.57;1.88;;;;;;;5.75;98.01;102160.38;5198083;28;20033;-73
2024/01/27 02:26:37;;;;;;;17.33;2.45;;;;;;;5.86;97.92;102165.69;5196800;28;20025;-73
2024/01/27 02:29:07;;;;;;;15.70;2.28;;;;;;;6.00;97.95;102169.28;5192395;28;20112;-73
2024/01/27 02:31:38;;;;;;;17.00;1.60;;;;;;;5.96;97.48;102173.59;5194292;28;20021;-72
2024/01/27 02:34:08;;;;;;;19.52;2.70;;;;;;;6.02;97.73;102180.53;5189588;28;20486;-72
2024/01/27 02:36:39;;;;;;;19.00;1.75;;;;;;;6.06;97.78;102184.91;5200126;28;20108;-73
2024/01/27 02:39:10;;;;;;;20.48;2.70;;;;;;;5.97;98.57;102187.41;5198630;28;20030;-74
2024/01/27 02:41:40;;;;;;;23.05;3.22;;;;;;;6.05;98.50;102188.38;5196824;28;20267;-73
2024/01/27 02:44:10;;;;;;;20.30;2.83;;;;;;;6.06;97.68;102193.56;5188153;28;20028;-71
2024/01/27 02:46:42;;;;;;;16.70;2.17;;;;;;;6.04;98.46;102197.88;5192785;28;20021;-73
2024/01/27 02:49:12;;;;;;;16.05;2.15;;;;;;;6.07;98.02;102192.69;5199122;28;20446;-73
2024/01/27 02:51:44;;;;;;;23.67;2.47;;;;;;;6.07;98.56;102189.25;5199883;28;20060;-73
2024/01/27 02:54:14;;;;;;;22.83;2.40;;;;;;;5.99;97.91;102193.50;5193655;28;20052;-73
2024/01/27 02:56:44;;;;;;;21.40;2.58;;;;;;;6.01;98.31;102207.34;5194236;28;20391;-73
2024/01/27 02:59:14;;;;;;;22.85;2.55;;;;;;;5.91;98.88;102210.72;5186315;28;20079;-73
2024/01/27 03:01:45;;;;;;;12.45;2.03;;;;;;;5.99;99.62;102211.66;5196221;28;20041;-73
2024/01/27 03:04:15;;;;;;;15.70;2.40;;;;;;;6.02;98.47;102209.06;5202936;28;20029;-74
2024/01/27 03:06:45;;;;;;;11.18;1.83;;;;;;;5.96;98.99;102209.91;5193766;28;20525;-72
2024/01/27 03:09:16;;;;;;;16.85;2.13;;;;;;;5.87;99.40;102206.34;5195005;28;22187;-73
2024/01/27 03:11:46;;;;;;;19.95;2.63;;;;;;;5.94;98.32;102209.00;5193506;28;20022;-73
2024/01/27 03:14:16;;;;;;;18.77;2.15;;;;;;;5.81;99.70;102209.78;5186866;28;20037;-73
2024/01/27 03:16:46;;;;;;;15.27;2.20;;;;;;;5.87;98.78;102211.53;5195025;28;20021;-73
2024/01/27 03:19:17;;;;;;;27.75;3.38;;;;;;;5.89;98.53;102217.63;5198227;28;20370;-73
2024/01/27 03:21:47;;;;;;;16.77;2.35;;;;;;;5.76;99.58;102213.13;5204111;28;20056;-73
2024/01/27 03:24:17;;;;;;;21.42;2.20;;;;;;;5.76;100.00;102223.50;5203479;28;20040;-73
2024/01/27 03:26:48;;;;;;;22.95;2.67;;;;;;;5.70;100.00;102223.44;5205857;28;20021;-73
2024/01/27 03:29:18;;;;;;;23.95;2.53;;;;;;;5.78;98.98;102226.97;5206466;28;20033;-73
2024/01/27 03:31:49;;;;;;;18.08;2.13;;;;;;;5.86;99.34;102230.53;5205916;28;20060;-73
2024/01/27 03:34:24;;;;;;;21.00;2.63;;;;;;;5.75;99.45;102229.56;5189372;28;20056;-73
2024/01/27 03:36:54;;;;;;;21.02;2.38;;;;;;;5.84;99.68;102237.44;5202183;28;20100;-73
2024/01/27 03:39:25;;;;;;;24.67;2.90;;;;;;;5.92;98.42;102228.03;5198986;28;20120;-73
2024/01/27 03:41:55;;;;;;;18.85;2.13;;;;;;;5.87;99.20;102237.47;5195797;28;20025;-73
2024/01/27 03:44:25;;;;;;;18.83;2.92;;;;;;;5.85;99.33;102246.97;5200339;28;20108;-73
2024/01/27 03:46:56;;;;;;;19.98;2.65;;;;;;;5.92;98.98;102252.25;5201614;28;20364;-73
2024/01/27 03:49:26;;;;;;;15.50;2.10;;;;;;;5.93;97.92;102253.13;5194568;28;20033;-73
2024/01/27 03:51:56;;;;;;;14.88;1.83;;;;;;;5.88;98.55;102254.81;5201024;28;20507;-73
2024/01/27 03:54:26;;;;;;;20.20;2.20;;;;;;;5.93;98.62;102259.16;5201354;28;20108;-73
2024/01/27 03:56:57;;;;;;;21.90;2.08;;;;;;;5.87;98.13;102253.03;5200493;28;20049;-73
2024/01/27 03:59:27;;;;;;;20.13;2.38;;;;;;;5.84;97.54;102242.63;5204809;28;20032;-73
2024/01/27 04:01:57;;;;;;;13.20;2.08;;;;;;;5.79;98.56;102252.09;5205366;28;20025;-73
2024/01/27 04:04:28;;;;;;;18.65;1.95;;;;;;;5.83;97.25;102253.88;5236923;22;20052;-74
2024/01/27 04:06:58;;;;;;;15.73;2.30;;;;;;;5.86;97.55;102253.91;5220318;28;20070;-74
2024/01/27 04:09:28;;;;;;;16.90;2.00;;;;;;;5.67;97.65;102247.63;5226136;28;20024;-74
2024/01/27 04:11:59;;;;;;;18.40;1.85;;;;;;;5.59;98.78;102249.25;5232366;28;20028;-74
2024/01/27 04:14:29;;;;;;;20.95;2.55;;;;;;;5.50;98.39;102256.06;5230436;28;20070;-74
2024/01/27 04:16:59;;;;;;;16.48;3.05;;;;;;;5.36;100.00;102257.59;5205841;28;20025;-74
2024/01/27 04:19:29;;;;;;;23.58;3.40;;;;;;;5.41;99.90;102262.00;5214899;28;20052;-75
2024/01/27 04:22:00;;;;;;;24.17;3.38;;;;;;;5.16;100.00;102263.41;5212667;28;20079;-75
2024/01/27 04:24:30;;;;;;;12.43;2.05;;;;;;;5.08;100.00;102265.91;5216507;28;20028;-72
2024/01/27 04:27:02;;;;;;;15.40;2.10;;;;;;;5.12;100.00;102262.47;5210302;28;20093;-74
2024/01/27 04:29:32;;;;;;;24.08;2.50;;;;;;;5.13;100.00;102266.81;5202451;28;20036;-75
2024/01/27 04:32:03;;;;;;;17.83;2.13;;;;;;;5.05;100.00;102255.50;5216730;28;20433;-74
2024/01/27 04:34:33;;;;;;;13.35;1.85;;;;;;;5.03;100.00;102256.31;5218162;28;20107;-74
2024/01/27 04:37:04;;;;;;;25.80;2.80;;;;;;;4.97;100.00;102262.28;5220100;28;20068;-74
2024/01/27 04:39:34;;;;;;;20.90;2.53;;;;;;;4.86;100.00;102253.50;5207730;28;20051;-74
2024/01/27 04:42:06;;;;;;;20.52;2.00;;;;;;;4.74;100.00;102255.91;5216938;28;20545;-73
2024/01/27 04:44:40;;;;;;;19.05;2.65;;;;;;;4.86;100.00;102250.91;5208994;28;20020;-74
2024/01/27 04:47:10;;;;;;;19.60;2.95;;;;;;;4.78;100.00;102255.09;5222645;28;20446;-74
2024/01/27 04:49:41;;;;;;;20.38;3.03;;;;;;;4.81;100.00;102268.09;5216886;28;20112;-74
2024/01/27 04:52:11;;;;;;;23.30;2.72;;;;;;;4.79;100.00;102268.94;5217080;28;20028;-74
2024/01/27 04:54:41;;;;;;;20.23;2.90;;;;;;;4.86;100.00;102271.63;5219612;28;20052;-74
2024/01/27 04:57:12;;;;;;;16.95;2.63;;;;;;;4.63;100.00;102283.34;5217442;28;20498;-74
2024/01/27 04:59:42;;;;;;;21.75;2.92;;;;;;;4.74;100.00;102281.81;5220852;28;20032;-74
2024/01/27 05:02:12;;;;;;;27.33;3.15;;;;;;;4.65;100.00;102289.41;5224571;28;20032;-72
2024/01/27 05:04:42;;;;;;;25.27;3.30;;;;;;;4.67;100.00;102292.03;5224371;28;20016;-73
2024/01/27 05:07:13;;;;;;;19.35;2.53;;;;;;;4.55;100.00;102295.31;5220065;28;20021;-72
2024/01/27 05:09:43;;;;;;;17.77;2.67;;;;;;;4.56;100.00;102291.88;5217861;28;20123;-74
2024/01/27 05:12:13;;;;;;;15.55;2.83;;;;;;;4.72;100.00;102309.41;5222353;28;20036;-74
2024/01/27 05:14:47;;;;;;;15.57;2.17;;;;;;;4.69;100.00;102301.59;5218928;28;20127;-72
2024/01/27 05:17:17;;;;;;;17.63;2.38;;;;;;;4.72;100.00;102301.63;5223888;28;20044;-74
2024/01/27 05:19:49;;;;;;;20.00;2.28;;;;;;;4.70;100.00;102313.69;5215571;28;20048;-74
2024/01/27 05:22:20;;;;;;;14.00;2.45;;;;;;;4.73;100.00;102305.97;5222504;28;20490;-74
2024/01/27 05:24:50;;;;;;;22.42;2.92;;;;;;;4.73;100.00;102303.38;5226335;28;20107;-74
2024/01/27 05:27:20;;;;;;;23.00;3.97;;;;;;;4.65;100.00;102309.28;5225056;28;20058;-74
2024/01/27 05:29:51;;;;;;;17.00;2.30;;;;;;;4.60;100.00;102305.75;5225802;28;20032;-74
2024/01/27 05:32:21;;;;;;;20.92;2.70;;;;;;;4.51;100.00;102298.69;5226261;28;20534;-74
2024/01/27 05:34:51;;;;;;;18.77;2.42;;;;;;;4.53;100.00;102304.78;5224873;28;20032;-75
2024/01/27 05:37:21;;;;;;;30.70;2.97;;;;;;;4.59;100.00;102304.84;5225810;28;20496;-74
2024/01/27 05:39:52;;;;;;;15.10;2.47;;;;;;;4.61;100.00;102313.53;5226386;28;20036;-74
2024/01/27 05:42:22;;;;;;;13.93;2.85;;;;;;;4.53;100.00;102316.81;5220809;28;20543;-74
2024/01/27 05:44:53;;;;;;;18.20;2.88;;;;;;;4.45;100.00;102321.88;5224882;28;20032;-72
2024/01/27 05:47:23;;;;;;;24.77;2.72;;;;;;;4.46;100.00;102333.97;5227402;28;20027;-74
2024/01/27 05:49:53;;;;;;;18.40;3.58;;;;;;;4.59;100.00;102330.75;5224323;28;20091;-74
2024/01/27 05:52:25;;;;;;;16.13;2.55;;;;;;;4.52;100.00;102323.75;5228008;28;20047;-73
2024/01/27 05:54:55;;;;;;;21.33;3.03;;;;;;;4.49;100.00;102326.25;5226541;28;20032;-74
2024/01/27 05:57:26;;;;;;;13.93;2.08;;;;;;;4.61;100.00;102326.47;5221143;28;20028;-74
2024/01/27 05:59:56;;;;;;;17.38;2.47;;;;;;;4.56;100.00;102317.75;5222923;28;20033;-72
2024/01/27 06:02:26;;;;;;;17.83;2.90;;;;;;;4.51;100.00;102327.19;5218840;28;20021;-74
2024/01/27 06:04:56;;;;;;;23.10;3.65;;;;;;;4.48;100.00;102337.44;5224692;28;20559;-74
2024/01/27 06:07:27;;;;;;;19.45;2.65;;;;;;;4.54;100.00;102326.34;5215207;28;20032;-75
2024/01/27 06:09:57;;;;;;;13.32;2.38;;;;;;;4.43;100.00;102323.56;5205249;28;20264;-74
2024/01/27 06:12:27;;;;;;;24.30;2.50;;;;;;;4.30;100.00;102326.78;5206863;28;20028;-74
2024/01/27 06:14:58;;;;;;;13.52;2.22;;;;;;;4.34;100.00;102338.06;5205643;28;20026;-74
2024/01/27 06:17:28;;;;;;;18.02;2.50;;;;;;;4.38;100.00;102338.16;5207595;28;20022;-73
2024/01/27 06:19:59;;;;;;;21.75;3.20;;;;;;;4.34;100.00;102338.97;5219797;28;20033;-74
2024/01/27 06:22:31;;;;;;;16.70;2.60;;;;;;;4.20;100.00;102343.00;5228752;28;20028;-74
2024/01/27 06:25:01;;;;;;;20.05;2.58;;;;;;;4.33;100.00;102347.53;5220562;28;20020;-71
2024/01/27 06:27:32;;;;;;;12.60;2.28;;;;;;;4.28;100.00;102338.81;5227350;28;20029;-73
2024/01/27 06:30:03;;;;;;;23.10;2.65;;;;;;;4.40;100.00;102346.81;5219705;28;20056;-74
2024/01/27 06:32:33;;;;;;;15.90;2.78;;;;;;;4.38;100.00;102343.34;5217978;28;20108;-73
2024/01/27 06:35:04;;;;;;;16.20;2.30;;;;;;;4.38;100.00;102345.03;5220073;28;20375;-74
2024/01/27 06:37:35;;;;;;;19.08;2.45;;;;;;;4.27;100.00;102342.25;5214524;28;20045;-73
2024/01/27 06:40:06;;;;;;;17.05;2.22;;;;;;;4.30;100.00;102349.22;5216067;28;20029;-71
2024/01/27 06:42:36;;;;;;;19.83;2.70;;;;;;;4.27;100.00;102351.75;5215856;28;20052;-75
2024/01/27 06:45:07;;;;;;;18.42;2.38;;;;;;;4.29;100.00;102353.50;5216462;28;20037;-73
2024/01/27 06:47:37;;;;;;;18.77;2.33;;;;;;;4.19;100.00;102349.03;5224775;28;20028;-74
2024/01/27 06:50:08;;;;;;;19.45;2.63;;;;;;;4.21;100.00;102349.91;5210603;28;20048;-74
2024/01/27 06:52:38;;;;;;;18.00;2.50;;;;;;;4.20;100.00;102350.78;5207317;28;20026;-74
2024/01/27 06:55:10;;;;;;;21.80;2.45;;;;;;;4.22;100.00;102363.72;5205106;28;20437;-73
2024/01/27 06:57:41;;;;;;;21.38;2.88;;;;;;;4.19;100.00;102372.31;5207614;28;20403;-74
2024/01/27 07:00:14;;;;;;;20.13;2.70;;;;;;;4.15;100.00;102370.47;5211641;28;20040;-75
2024/01/27 07:02:44;;;;;;;13.68;2.40;;;;;;;4.19;100.00;102371.44;5208254;28;20024;-74
2024/01/27 07:05:14;;;;;;;20.85;2.97;;;;;;;4.15;100.00;102367.03;5209628;28;20034;-74
2024/01/27 07:07:45;;;;;;;13.27;2.20;;;;;;;4.15;100.00;102372.22;5210445;28;20028;-73
2024/01/27 07:10:15;;;;;;;13.70;2.40;;;;;;;4.12;100.00;102385.97;5205540;28;20405;-73
2024/01/27 07:12:45;;;;;;;13.20;2.20;;;;;;;4.20;100.00;102380.94;5209141;28;20040;-74
2024/01/27 07:15:16;;;;;;;22.67;2.47;;;;;;;4.14;100.00;102388.59;5215369;28;20033;-74
2024/01/27 07:17:46;;;;;;;15.90;2.25;;;;;;;4.16;100.00;102387.75;5206881;28;20027;-74
2024/01/27 07:20:17;;;;;;;15.90;2.70;;;;;;;4.14;100.00;102386.84;5209970;28;20029;-74
2024/01/27 07:22:47;;;;;;;20.60;2.80;;;;;;;4.10;100.00;102390.22;5212843;28;20029;-75
2024/01/27 07:25:18;;;;;;;12.70;2.42;;;;;;;4.17;100.00;102393.81;5205589;28;20506;-74
2024/01/27 07:27:48;;;;;;;23.63;2.80;;;;;;;4.24;100.00;102393.97;5206405;28;20036;-74
2024/01/27 07:30:19;;;;;;;16.77;2.55;;;;;;;4.33;100.00;102399.28;5207718;28;20029;-74
2024/01/27 07:32:50;;;;;;;24.38;3.15;;;;;;;4.23;100.00;102402.56;5205323;28;20374;-75
2024/01/27 07:35:20;;;;;;;16.20;2.33;;;;;;;4.39;100.00;102404.59;5206610;28;20528;-74
2024/01/27 07:37:51;;;;;;;18.83;2.88;;;;;;;4.30;100.00;102417.34;5226738;28;20111;-74
2024/01/27 07:40:22;;;;;;;17.70;2.42;;;;;;;4.37;100.00;102419.25;5228951;28;20028;-73
2024/01/27 07:42:52;;;;;;;14.25;2.50;;;;;;;4.47;100.00;102423.72;5218877;28;20030;-73
2024/01/27 07:45:22;;;;;;;20.05;2.97;;;;;;;4.59;100.00;102423.97;5219907;28;20835;-71
2024/01/27 07:47:53;;;;;;;19.40;3.13;;;;;;;4.61;100.00;102422.25;5220641;28;20470;-73
2024/01/27 07:50:23;;;;;;;16.25;2.40;;;;;;;4.62;99.73;102421.41;5218806;28;20036;-73
2024/01/27 07:52:53;;;;;;;14.65;2.92;;;;;;;4.70;99.68;102424.16;5220922;28;20116;-74
2024/01/27 07:55:24;;;;;;;16.95;2.50;;;;;;;4.92;99.30;102427.13;5221046;28;20488;-71
2024/01/27 07:57:54;;;;;;;23.42;2.55;;;;;;;5.08;97.34;102421.38;5221365;28;20487;-74
2024/01/27 08:00:24;;;;;;;13.43;2.45;;;;;;;5.14;96.94;102429.22;5216644;28;20021;-74
2024/01/27 08:02:55;;;;;;;10.90;2.72;;;;;;;5.40;96.50;102433.09;5219115;28;20158;-74
2024/01/27 08:05:25;;;;;;;14.75;2.63;;;;;;;5.75;94.10;102424.09;5221116;28;20029;-73
2024/01/27 08:07:55;;;;;;;11.10;2.03;;;;;;;6.24;92.16;102421.31;5222790;28;20031;-75
2024/01/27 08:10:26;;;;;;;15.63;2.30;;;;;;;6.64;88.93;102418.25;5222768;28;20052;-73
2024/01/27 08:12:56;;;;;;;14.43;2.70;;;;;;;6.86;88.87;102418.47;5221238;28;20023;-74
2024/01/27 08:15:26;;;;;;;12.35;2.63;;;;;;;7.78;84.68;102420.88;5226143;28;20029;-72
2024/01/27 08:17:57;;;;;;;10.15;2.42;;;;;;;8.08;81.99;102423.59;5224515;28;20102;-74
2024/01/27 08:20:27;;;;;;;9.32;2.30;;;;;;;8.85;77.52;102427.31;5226699;28;20024;-72
2024/01/27 08:22:57;;;;;;;17.48;2.85;;;;;;;9.57;75.59;102425.56;5224949;28;20032;-74
2024/01/27 08:25:27;;;;;;;10.60;2.10;;;;;;;9.58;74.84;102422.06;5219503;28;20020;-74
2024/01/27 08:27:58;;;;;;;9.77;2.08;;;;;;;9.79;72.61;102422.03;5226512;28;20450;-75
2024/01/27 08:30:28;;;;;;;11.45;2.53;;;;;;;10.14;70.42;102425.41;5225244;28;20029;-75
2024/01/27 08:32:58;;;;;;;16.92;2.63;;;;;;;10.54;72.47;102416.47;5222777;28;20446;-75
2024/01/27 08:35:28;;;;;;;17.63;3.22;;;;;;;10.79;67.76;102428.53;5217208;28;20052;-74
2024/01/27 08:37:59;;;;;;;14.70;2.60;;;;;;;10.35;69.45;102427.06;5217948;28;20549;-74
2024/01/27 08:40:29;;;;;;;10.98;2.22;;;;;;;11.20;68.63;102424.72;5217035;28;20024;-74
2024/01/27 08:42:59;;;;;;;14.10;2.65;;;;;;;11.01;67.46;102440.56;5222016;28;20021;-74
2024/01/27 08:45:30;;;;;;;15.05;2.67;;;;;;;11.53;68.26;102434.88;5223893;28;20024;-74
2024/01/27 08:48:00;;;;;;;19.88;3.10;;;;;;;10.83;67.28;102438.06;5227418;28;20343;-74
2024/01/27 08:50:30;;;;;;;11.88;2.30;;;;;;;10.86;69.67;102443.28;5225574;28;20111;-75
2024/01/27 08:53:01;;;;;;;9.93;2.65;;;;;;;10.67;69.44;102444.28;5227116;28;20028;-74
2024/01/27 08:55:32;;;;;;;11.95;2.60;;;;;;;11.36;66.84;102449.00;5228135;28;20036;-75
2024/01/27 08:58:02;;;;;;;14.45;2.65;;;;;;;11.08;67.60;102443.13;5223106;28;20067;-75
2024/01/27 09:00:32;;;;;;;13.85;2.50;;;;;;;9.21;73.85;102461.25;5225712;28;20474;-74
2024/01/27 09:03:03;;;;;;;13.15;2.83;;;;;;;8.63;76.88;102459.44;5226344;28;20067;-74
2024/01/27 09:05:33;;;;;;;20.38;2.83;;;;;;;8.27;76.81;102459.34;5226606;28;20377;-73
2024/01/27 09:08:04;;;;;;;13.98;2.80;;;;;;;8.25;78.09;102470.59;5226765;28;20025;-74
2024/01/27 09:10:34;;;;;;;12.25;2.70;;;;;;;7.72;80.13;102472.88;5226130;28;20067;-73
2024/01/27 09:13:04;;;;;;;11.75;2.97;;;;;;;7.88;81.42;102464.31;5229737;28;20040;-74
2024/01/27 09:15:35;;;;;;;20.88;4.35;;;;;;;7.22;83.88;102470.78;5226997;28;20029;-73
2024/01/27 09:18:05;;;;;;;15.18;3.53;;;;;;;7.37;83.26;102458.75;5226877;28;20601;-74
2024/01/27 09:20:35;;;;;;;17.48;2.58;;;;;;;7.29;84.16;102469.97;5227528;28;20028;-73
2024/01/27 09:23:06;;;;;;;18.50;3.13;;;;;;;7.53;83.19;102475.38;5227814;28;20051;-73
2024/01/27 09:25:36;;;;;;;15.10;2.75;;;;;;;7.43;83.74;102474.44;5222155;28;20158;-73
2024/01/27 09:28:06;;;;;;;21.08;3.17;;;;;;;7.38;85.05;102483.06;5221194;28;20029;-72
2024/01/27 09:30:37;;;;;;;20.98;3.55;;;;;;;7.37;84.29;102483.91;5226754;28;20017;-71
2024/01/27 09:33:07;;;;;;;16.50;2.38;;;;;;;7.42;84.16;102477.00;5226299;28;20112;-74
2024/01/27 09:35:37;;;;;;;18.55;2.78;;;;;;;7.42;84.52;102487.41;5227336;28;20025;-73
2024/01/27 09:38:09;;;;;;;16.67;2.80;;;;;;;7.54;84.52;102485.75;5229614;28;20104;-74
2024/01/27 09:40:40;;;;;;;10.32;2.38;;;;;;;7.29;84.83;102491.66;5226652;28;20028;-71
2024/01/27 09:43:13;;;;;;;13.30;3.00;;;;;;;7.22;85.07;102492.44;5228404;28;20434;-73
2024/01/27 09:45:44;;;;;;;14.57;2.85;;;;;;;7.35;84.51;102496.03;5226670;28;20051;-73
2024/01/27 09:48:15;;;;;;;16.50;3.05;;;;;;;7.43;85.27;102496.97;5228818;28;20024;-74
2024/01/27 09:50:49;;;;;;;16.92;3.47;;;;;;;7.53;84.78;102497.03;5223505;28;20025;-74
2024/01/27 09:53:19;;;;;;;12.35;3.13;;;;;;;7.60;85.28;102497.97;5213063;28;20038;-74
2024/01/27 09:55:51;;;;;;;22.77;3.55;;;;;;;7.70;84.28;102499.78;5215726;28;20027;-73
2024/01/27 09:58:21;;;;;;;12.25;3.00;;;;;;;7.60;84.63;102504.06;5228590;28;20477;-73
2024/01/27 10:00:56;;;;;;;16.63;3.28;;;;;;;7.58;84.04;102500.56;5224667;28;20036;-74
2024/01/27 10:03:28;;;;;;;16.60;3.15;;;;;;;7.65;84.60;102507.53;5221947;28;20036;-74
2024/01/27 10:06:00;;;;;;;14.43;2.42;;;;;;;7.83;85.19;102505.06;5239427;22;20069;-76
2024/01/27 10:08:30;;;;;;;13.63;3.03;;;;;;;7.79;84.08;102510.22;5209650;28;20102;-76
2024/01/27 10:11:08;;;;;;;16.30;3.15;;;;;;;7.63;84.73;102508.38;5211966;28;20074;-73
2024/01/27 10:13:39;;;;;;;14.27;2.85;;;;;;;7.72;84.37;102513.66;5208507;28;20149;-74
2024/01/27 10:16:12;;;;;;;16.00;3.00;;;;;;;7.80;84.13;102512.84;5203135;28;20112;-73
2024/01/27 10:18:42;;;;;;;19.38;3.20;;;;;;;7.84;84.35;102512.00;5202971;28;20660;-73
2024/01/27 10:21:13;;;;;;;14.38;2.90;;;;;;;7.88;83.92;102516.38;5203957;28;20173;-72
2024/01/27 10:23:44;;;;;;;19.25;3.40;;;;;;;7.77;83.74;102520.66;5206925;28;20024;-73
2024/01/27 10:26:14;;;;;;;16.98;3.17;;;;;;;7.66;84.71;102519.69;5209955;28;20124;-74
2024/01/27 10:28:57;;;;;;;16.98;2.83;;;;;;;7.87;84.04;102522.44;5210105;28;20120;-74
2024/01/27 10:31:28;;;;;;;11.43;2.70;;;;;;;7.85;83.71;102512.91;5204559;28;20033;-74
2024/01/27 10:34:01;;;;;;;20.73;3.20;;;;;;;7.91;83.40;102515.53;5209159;28;20038;-71
2024/01/27 10:36:42;;;;;;;13.55;2.83;;;;;;;7.93;84.13;102516.41;5205772;28;20056;-73
2024/01/27 10:39:22;;;;;;;21.58;3.85;;;;;;;7.79;83.36;102503.31;5208235;28;20044;-73
2024/01/27 10:41:52;;;;;;;17.77;4.95;;;;;;;7.85;83.83;102511.16;5207236;28;20029;-73
2024/01/27 10:44:23;;;;;;;24.42;5.30;;;;;;;7.93;83.55;102512.09;5208226;28;20035;-73
2024/01/27 10:46:56;;;;;;;41.55;12.18;;;;;;;7.93;83.52;102508.59;5205016;28;20021;-73
2024/01/27 10:49:31;;;;;;;21.33;4.97;;;;;;;7.83;83.05;102517.19;5211237;28;20029;-73
2024/01/27 10:52:08;;;;;;;28.98;8.27;;;;;;;7.90;84.12;102519.00;5204735;28;20036;-72
2024/01/27 10:54:41;;;;;;;19.35;4.05;;;;;;;7.96;83.79;102521.63;5208047;28;20517;-73
2024/01/27 10:57:12;;;;;;;17.40;4.45;;;;;;;7.88;82.86;102520.72;5205875;28;20045;-73
2024/01/27 10:59:44;;;;;;;16.23;3.38;;;;;;;8.13;84.12;102502.63;5208601;28;20037;-73
2024/01/27 11:02:15;;;;;;;12.68;3.88;;;;;;;7.91;83.30;102508.56;5207404;28;20351;-73
2024/01/27 11:04:48;;;;;;;18.75;3.78;;;;;;;7.90;83.04;102514.63;5205552;28;20050;-74
2024/01/27 11:07:22;;;;;;;16.77;3.47;;;;;;;8.04;83.28;102507.78;5210026;28;20032;-73
2024/01/27 11:09:52;;;;;;;13.43;4.50;;;;;;;7.96;83.72;102496.47;5205509;28;20036;-74
2024/01/27 11:12:24;;;;;;;15.82;3.50;;;;;;;8.02;83.49;102499.09;5211238;28;20021;-73
2024/01/27 11:14:58;;;;;;;27.55;3.67;;;;;;;8.11;82.77;102491.34;5207632;28;20033;-72
2024/01/27 11:17:38;;;;;;;16.67;2.92;;;;;;;8.13;82.38;102484.41;5204314;28;20021;-74
2024/01/27 11:20:15;;;;;;;12.85;3.03;;;;;;;8.10;82.70;102504.34;5202704;28;20042;-73
2024/01/27 11:22:46;;;;;;;14.10;3.50;;;;;;;7.96;82.59;102506.00;5206244;28;20025;-73
2024/01/27 11:25:17;;;;;;;13.68;2.85;;;;;;;7.99;83.18;102493.88;5203917;28;20041;-73
2024/01/27 11:27:48;;;;;;;16.42;3.42;;;;;;;8.03;82.29;102495.63;5205799;28;20422;-73
2024/01/27 11:30:28;;;;;;;11.85;3.35;;;;;;;8.09;83.32;102490.47;5204276;28;20041;-73
2024/01/27 11:33:01;;;;;;;15.48;3.42;;;;;;;8.03;82.54;102493.03;5202617;28;20032;-73
2024/01/27 11:35:32;;;;;;;18.70;3.67;;;;;;;8.04;82.28;102492.16;5203590;28;20048;-74
2024/01/27 11:38:02;;;;;;;15.48;3.50;;;;;;;8.00;82.35;102495.63;5205580;28;20478;-72